e-Mail: Password: Lost your password? Click here. - Register a new user

c h a v e z j u a r e z . c o m

Weather - Tiempo - Wetter - Temps

METAR DATA MMMX (Mexico City)

Mexico City / Licenci, Mexico (MMMX) 19-26N 099-06W
Aug 19, 2018 - 04:40 PM EDT / 2018.08.19 2040 UTC
Wind: from the E (100 degrees) at 5 MPH (4 KT):0
Visibility: 7 mile(s):0
Sky conditions: mostly cloudy
Weather: Towering cumulus clouds observed
Temperature: 75 F (24 C)
Dew Point: 50 F (10 C)
Relative Humidity: 41%
Pressure (altimeter): 30.25 in. Hg (1024 hPa)
Pressure tendency: 0.07 inches (2.3 hPa) lower than three hours ago
ob: MMMX 192040Z 10004KT 7SM BKN020TCU 24/10 A3025 NOSIG RMK SLP088 57023 971 8/200 HZY
cycle: 20

Mexico City

St. Prex




Current weather alarms for Switzerland


www.wetteralarm.ch